Time;durP1;ratioP1;P1;durP2;ratioP2;P2;SDS_P1;SDS_P2;PMS_P1;PMS_P2;Temp;Humidity;BMP_temperature;BMP_pressure;BME280_temperature;BME280_humidity;BME280_pressure;Samples;Min_cycle;Max_cycle;Signal;HPM_P1;HPM_P2
2021/06/29 00:01:01;;;;;;;94.57;60.08;;;17.60;90.80;;;;;;5018903;28;20392;-74
2021/06/29 00:03:26;;;;;;;94.75;57.78;;;17.60;90.90;;;;;;5017328;28;20484;-74
2021/06/29 00:05:52;;;;;;;105.82;58.75;;;17.60;91.00;;;;;;5018089;28;20034;-73
2021/06/29 00:08:18;;;;;;;105.13;57.30;;;17.60;90.90;;;;;;5011351;28;20385;-73
2021/06/29 00:10:44;;;;;;;99.43;60.60;;;17.60;91.10;;;;;;5016909;28;20030;-75
2021/06/29 00:13:10;;;;;;;107.40;59.60;;;17.60;91.10;;;;;;5019733;28;20038;-73
2021/06/29 00:15:36;;;;;;;112.18;56.05;;;17.60;91.10;;;;;;5024465;28;20033;-73
2021/06/29 00:18:03;;;;;;;122.38;58.38;;;17.60;91.00;;;;;;5012384;28;20087;-74
2021/06/29 00:20:29;;;;;;;129.23;61.30;;;17.60;91.00;;;;;;5016909;28;20530;-74
2021/06/29 00:22:54;;;;;;;115.10;61.30;;;17.50;91.20;;;;;;5024524;28;20128;-74
2021/06/29 00:25:20;;;;;;;121.80;61.33;;;17.50;91.40;;;;;;5025819;28;20120;-78
2021/06/29 00:27:46;;;;;;;114.97;59.13;;;17.50;91.30;;;;;;5019263;28;20475;-74
2021/06/29 00:30:13;;;;;;;131.65;58.20;;;17.60;91.30;;;;;;5012865;28;20473;-74
2021/06/29 00:32:39;;;;;;;110.57;57.53;;;17.50;91.00;;;;;;5013716;28;20052;-74
2021/06/29 00:35:05;;;;;;;128.82;56.35;;;17.60;91.20;;;;;;5028381;28;20465;-73
2021/06/29 00:37:31;;;;;;;111.45;55.85;;;17.60;91.10;;;;;;5028303;28;20055;-74
2021/06/29 00:39:57;;;;;;;94.80;51.53;;;17.60;90.90;;;;;;5029107;28;20054;-74
2021/06/29 00:42:22;;;;;;;113.05;54.65;;;17.60;90.90;;;;;;5015938;28;20041;-81
2021/06/29 00:44:48;;;;;;;107.95;52.78;;;17.60;90.80;;;;;;5017957;28;20034;-74
2021/06/29 00:47:14;;;;;;;117.53;50.30;;;17.60;90.50;;;;;;5017042;28;20038;-78
2021/06/29 00:49:41;;;;;;;84.90;47.33;;;17.50;90.60;;;;;;5021090;28;20092;-73
2021/06/29 00:52:14;;;;;;;82.10;45.92;;;17.60;90.80;;;;;;5018680;28;20037;-75
2021/06/29 00:54:41;;;;;;;74.80;43.90;;;17.60;90.60;;;;;;5018620;28;20068;-74
2021/06/29 00:57:09;;;;;;;79.47;42.75;;;17.50;90.40;;;;;;5006295;28;20044;-73
2021/06/29 00:59:35;;;;;;;101.53;44.45;;;17.40;90.40;;;;;;5015371;28;20034;-73
2021/06/29 01:02:00;;;;;;;74.85;44.20;;;17.30;90.40;;;;;;5007866;28;20477;-73
2021/06/29 01:04:26;;;;;;;75.57;43.75;;;17.30;90.70;;;;;;5027932;28;20069;-82
2021/06/29 01:06:53;;;;;;;93.32;43.13;;;17.40;90.70;;;;;;5010952;28;20473;-73
2021/06/29 01:09:20;;;;;;;85.90;43.75;;;17.40;90.70;;;;;;4999373;28;20042;-73
2021/06/29 01:11:46;;;;;;;75.25;43.10;;;17.40;90.80;;;;;;5002480;28;20401;-75
2021/06/29 01:14:13;;;;;;;95.30;44.25;;;17.40;90.90;;;;;;4994426;28;20034;-73
2021/06/29 01:16:41;;;;;;;80.00;42.28;;;17.40;90.90;;;;;;5007739;28;20026;-74
2021/06/29 01:19:07;;;;;;;84.95;45.30;;;17.40;90.90;;;;;;5001040;28;20080;-73
2021/06/29 01:21:37;;;;;;;78.93;42.92;;;17.30;90.90;;;;;;5002299;28;20233;-80
2021/06/29 01:24:11;;;;;;;118.15;46.70;;;17.40;91.10;;;;;;5004295;28;20128;-73
2021/06/29 01:26:42;;;;;;;76.33;41.03;;;17.50;91.10;;;;;;5002752;28;20038;-80
2021/06/29 01:29:08;;;;;;;83.70;44.72;;;17.60;91.10;;;;;;5000486;28;20414;-75
2021/06/29 01:31:35;;;;;;;86.75;45.28;;;17.60;91.10;;;;;;5005002;28;20057;-74
2021/06/29 01:34:02;;;;;;;81.45;44.63;;;17.70;91.10;;;;;;5000136;28;20084;-76
2021/06/29 01:36:35;;;;;;;85.53;43.17;;;17.60;91.00;;;;;;5002474;28;20037;-73
2021/06/29 01:39:03;;;;;;;87.55;45.55;;;17.70;90.90;;;;;;5003856;28;20470;-73
2021/06/29 01:41:28;;;;;;;77.18;42.97;;;17.70;90.90;;;;;;4996139;28;20031;-73
2021/06/29 01:44:13;;;;;;;91.82;48.28;;;17.70;91.00;;;;;;5000353;28;20084;-73
2021/06/29 01:46:41;;;;;;;92.90;46.75;;;17.80;90.80;;;;;;5002711;28;20049;-75
2021/06/29 01:49:07;;;;;;;84.50;45.08;;;17.80;90.70;;;;;;4999782;28;20033;-73
2021/06/29 01:51:33;;;;;;;74.25;41.03;;;17.70;90.70;;;;;;5002411;28;20029;-75
2021/06/29 01:53:59;;;;;;;93.20;46.38;;;17.80;90.70;;;;;;5013518;28;20049;-74
2021/06/29 01:56:30;;;;;;;81.07;44.50;;;17.70;90.50;;;;;;5002293;28;20476;-73
2021/06/29 01:58:59;;;;;;;89.80;46.00;;;17.80;90.50;;;;;;5008260;28;20128;-73
2021/06/29 02:01:25;;;;;;;86.70;46.92;;;17.70;90.40;;;;;;4997110;28;20367;-74
2021/06/29 02:03:51;;;;;;;92.18;48.50;;;17.70;90.50;;;;;;4997135;28;20045;-74
2021/06/29 02:06:17;;;;;;;90.05;48.17;;;17.60;90.50;;;;;;5006177;28;21519;-74
2021/06/29 02:08:44;;;;;;;78.47;44.72;;;17.60;90.80;;;;;;4998581;28;20080;-75
2021/06/29 02:11:10;;;;;;;79.85;44.88;;;17.60;90.60;;;;;;5004359;28;20041;-73
2021/06/29 02:13:36;;;;;;;77.93;44.17;;;17.40;90.80;;;;;;5002468;28;20190;-74
2021/06/29 02:16:01;;;;;;;76.68;43.63;;;17.40;91.00;;;;;;4999833;28;20733;-74
2021/06/29 02:18:28;;;;;;;77.18;45.30;;;17.50;91.00;;;;;;4997031;28;20141;-74
2021/06/29 02:20:54;;;;;;;85.95;48.20;;;17.50;91.00;;;;;;4998040;28;20073;-74
2021/06/29 02:23:20;;;;;;;77.05;44.72;;;17.60;91.10;;;;;;5010191;28;20027;-77
2021/06/29 02:25:46;;;;;;;76.97;44.95;;;17.60;91.10;;;;;;5002072;28;20032;-74
2021/06/29 02:28:14;;;;;;;77.65;46.58;;;17.60;91.00;;;;;;4999423;28;20030;-74
2021/06/29 02:30:41;;;;;;;81.10;47.22;;;17.60;90.90;;;;;;5002337;28;20088;-73
2021/06/29 02:33:07;;;;;;;81.88;47.22;;;17.60;91.00;;;;;;4996852;28;20037;-75
2021/06/29 02:35:32;;;;;;;71.50;44.67;;;17.60;90.90;;;;;;4997791;28;20398;-73
2021/06/29 02:37:58;;;;;;;74.20;45.53;;;17.70;90.90;;;;;;5000260;28;20034;-74
2021/06/29 02:40:24;;;;;;;74.22;45.00;;;17.70;90.60;;;;;;4997943;28;20128;-73
2021/06/29 02:42:50;;;;;;;76.72;46.75;;;17.70;90.70;;;;;;4991616;28;20041;-77
2021/06/29 02:45:20;;;;;;;80.20;47.22;;;17.80;90.80;;;;;;5004123;28;20042;-74
2021/06/29 02:47:47;;;;;;;78.40;47.80;;;17.70;90.50;;;;;;4999106;28;20434;-74
2021/06/29 02:50:13;;;;;;;79.05;47.05;;;17.70;90.50;;;;;;5000673;28;20056;-75
2021/06/29 02:52:39;;;;;;;76.97;46.40;;;17.60;90.30;;;;;;4995235;28;20030;-74
2021/06/29 02:55:07;;;;;;;82.32;47.28;;;17.60;90.50;;;;;;5006981;28;20034;-80
2021/06/29 02:57:33;;;;;;;78.47;48.08;;;17.70;90.60;;;;;;4999294;28;20034;-74
2021/06/29 02:59:58;;;;;;;77.30;45.88;;;17.80;90.70;;;;;;5001547;28;20037;-80
2021/06/29 03:02:24;;;;;;;78.72;45.78;;;17.80;90.60;;;;;;5003174;28;20405;-74
2021/06/29 03:04:50;;;;;;;76.80;46.58;;;17.80;90.60;;;;;;4997185;28;20188;-74
2021/06/29 03:07:16;;;;;;;83.55;49.92;;;17.80;90.60;;;;;;4996864;28;20512;-74
2021/06/29 03:09:42;;;;;;;85.40;49.75;;;17.90;90.40;;;;;;4998756;28;20042;-73
2021/06/29 03:12:09;;;;;;;85.75;49.95;;;17.80;90.20;;;;;;4999123;28;20481;-73
2021/06/29 03:14:36;;;;;;;78.72;48.30;;;17.80;90.20;;;;;;5002238;28;20025;-75
2021/06/29 03:17:06;;;;;;;80.57;48.42;;;17.80;90.30;;;;;;5001444;28;20429;-76
2021/06/29 03:19:32;;;;;;;79.68;48.58;;;17.90;90.30;;;;;;4999884;28;20696;-73
2021/06/29 03:21:58;;;;;;;78.95;48.15;;;17.90;90.30;;;;;;5006219;28;20485;-73
2021/06/29 03:24:24;;;;;;;85.85;51.38;;;17.90;90.20;;;;;;4991637;28;20122;-74
2021/06/29 03:26:50;;;;;;;93.93;54.22;;;17.90;90.20;;;;;;4997059;28;20105;-74
2021/06/29 03:29:16;;;;;;;84.63;51.90;;;17.80;90.10;;;;;;5008030;28;20092;-74
2021/06/29 03:31:41;;;;;;;80.50;49.65;;;17.80;90.10;;;;;;4993267;28;20038;-74
2021/06/29 03:34:07;;;;;;;86.05;53.13;;;17.80;90.20;;;;;;5004525;28;20752;-74
2021/06/29 03:36:33;;;;;;;80.70;50.00;;;17.80;90.00;;;;;;4992925;28;20121;-73
2021/06/29 03:38:59;;;;;;;90.70;53.78;;;17.80;90.10;;;;;;4997559;28;20385;-79
2021/06/29 03:41:24;;;;;;;79.25;49.22;;;17.80;90.00;;;;;;4998095;28;20472;-79
2021/06/29 03:43:50;;;;;;;74.65;47.90;;;17.80;90.20;;;;;;5005927;28;20438;-73
2021/06/29 03:46:16;;;;;;;91.45;54.40;;;17.90;90.30;;;;;;4998605;28;20093;-76
2021/06/29 03:48:42;;;;;;;83.80;52.85;;;17.90;90.30;;;;;;4996435;28;20046;-74
2021/06/29 03:51:07;;;;;;;84.15;54.63;;;17.90;90.30;;;;;;4999299;28;20046;-75
2021/06/29 03:53:33;;;;;;;83.50;51.15;;;17.90;90.40;;;;;;5000699;28;20034;-75
2021/06/29 03:55:59;;;;;;;81.10;50.53;;;17.90;90.30;;;;;;5023310;28;20396;-76
2021/06/29 03:58:24;;;;;;;82.10;52.05;;;18.00;90.10;;;;;;5022056;28;20472;-75
2021/06/29 04:00:50;;;;;;;84.75;54.00;;;18.00;90.00;;;;;;5019283;28;20034;-74
2021/06/29 04:03:16;;;;;;;85.07;52.58;;;18.00;90.00;;;;;;5017647;28;20042;-72
2021/06/29 04:05:42;;;;;;;81.65;49.72;;;18.00;90.10;;;;;;5022773;28;20061;-73
2021/06/29 04:08:07;;;;;;;80.18;49.30;;;17.90;90.20;;;;;;5024414;28;20033;-72
2021/06/29 04:10:33;;;;;;;83.90;50.13;;;18.00;90.20;;;;;;5018598;28;20034;-73
2021/06/29 04:12:59;;;;;;;86.40;50.80;;;18.00;90.10;;;;;;5019433;28;20033;-72
2021/06/29 04:15:25;;;;;;;83.65;48.30;;;18.00;90.20;;;;;;5022701;28;20439;-74
2021/06/29 04:17:50;;;;;;;97.05;53.20;;;18.00;90.10;;;;;;5017209;28;20037;-73
2021/06/29 04:20:16;;;;;;;91.10;51.42;;;18.00;90.20;;;;;;5014492;28;21408;-72
2021/06/29 04:22:42;;;;;;;98.90;52.03;;;18.00;90.10;;;;;;5025634;28;20049;-72
2021/06/29 04:25:09;;;;;;;95.20;49.45;;;18.00;90.00;;;;;;5014804;28;20052;-72
2021/06/29 04:27:36;;;;;;;99.45;49.53;;;17.90;90.00;;;;;;5014750;28;20229;-73
2021/06/29 04:30:03;;;;;;;92.38;48.83;;;17.90;90.10;;;;;;5008779;28;21690;-74
2021/06/29 04:32:29;;;;;;;96.13;48.67;;;17.90;90.10;;;;;;5018209;28;20676;-72
2021/06/29 04:34:54;;;;;;;89.97;45.97;;;17.80;90.00;;;;;;5024643;28;20050;-72
2021/06/29 04:37:20;;;;;;;92.25;46.78;;;17.80;90.10;;;;;;5025471;28;20029;-72
2021/06/29 04:39:46;;;;;;;94.13;45.35;;;17.80;90.20;;;;;;5021346;28;20044;-74
2021/06/29 04:42:12;;;;;;;101.63;48.05;;;17.80;90.30;;;;;;5025843;28;20038;-72
2021/06/29 04:44:39;;;;;;;114.53;49.92;;;17.70;90.40;;;;;;5022199;28;20061;-72
2021/06/29 04:47:09;;;;;;;101.90;48.08;;;17.80;90.40;;;;;;5012285;28;20045;-72
2021/06/29 04:49:36;;;;;;;108.75;50.78;;;17.70;90.60;;;;;;5022936;28;20044;-75
2021/06/29 04:52:02;;;;;;;93.45;48.20;;;17.70;90.60;;;;;;5016269;28;20037;-74
2021/06/29 04:54:27;;;;;;;103.55;48.15;;;17.70;90.70;;;;;;5020635;28;20051;-73
2021/06/29 04:56:53;;;;;;;102.70;47.75;;;17.70;90.70;;;;;;5015063;28;20038;-73
2021/06/29 04:59:18;;;;;;;120.93;52.30;;;17.80;90.80;;;;;;5011636;28;20044;-72
2021/06/29 05:01:44;;;;;;;106.25;48.38;;;17.70;90.80;;;;;;5020507;28;20381;-73
2021/06/29 05:04:10;;;;;;;106.05;47.10;;;17.70;90.60;;;;;;5019369;28;20049;-74
2021/06/29 05:06:35;;;;;;;98.05;45.00;;;17.60;90.60;;;;;;5026395;28;20073;-72
2021/06/29 05:09:01;;;;;;;103.43;45.78;;;17.60;90.50;;;;;;5016127;28;20036;-72
2021/06/29 05:11:27;;;;;;;108.30;47.83;;;17.60;90.60;;;;;;5018938;28;20034;-72
2021/06/29 05:13:52;;;;;;;114.10;47.40;;;17.60;90.70;;;;;;5014737;28;20048;-72
2021/06/29 05:16:18;;;;;;;107.70;46.95;;;17.60;90.80;;;;;;5024050;28;20504;-73
2021/06/29 05:18:44;;;;;;;104.65;47.83;;;17.60;90.80;;;;;;5013056;28;20044;-72
2021/06/29 05:21:10;;;;;;;112.00;49.80;;;17.60;90.90;;;;;;5015827;28;20037;-73
2021/06/29 05:23:35;;;;;;;109.05;47.00;;;17.50;90.90;;;;;;5012251;28;20038;-71
2021/06/29 05:26:01;;;;;;;95.20;45.88;;;17.50;91.00;;;;;;5016352;28;20085;-74
2021/06/29 05:28:27;;;;;;;118.43;50.80;;;17.50;91.10;;;;;;5013192;28;20443;-71
2021/06/29 05:30:55;;;;;;;108.22;46.85;;;17.50;90.90;;;;;;5017760;28;20045;-71
2021/06/29 05:33:21;;;;;;;103.95;46.75;;;17.50;91.10;;;;;;5011307;28;20065;-70
2021/06/29 05:35:47;;;;;;;115.93;50.70;;;17.50;91.30;;;;;;5014243;28;20055;-71
2021/06/29 05:38:12;;;;;;;105.30;48.15;;;17.60;91.00;;;;;;5013519;28;20037;-71
2021/06/29 05:40:38;;;;;;;110.30;48.78;;;17.60;91.00;;;;;;5022966;28;20128;-70
2021/06/29 05:43:07;;;;;;;108.90;48.95;;;17.60;91.00;;;;;;5020333;28;20033;-71
2021/06/29 05:45:32;;;;;;;122.43;49.58;;;17.60;91.00;;;;;;5017570;28;20465;-71
2021/06/29 05:47:58;;;;;;;116.13;50.20;;;17.60;91.00;;;;;;5015901;28;20046;-71
2021/06/29 05:50:24;;;;;;;115.57;48.25;;;17.70;90.80;;;;;;5023718;28;20045;-70
2021/06/29 05:52:50;;;;;;;100.93;44.97;;;17.60;90.90;;;;;;5023393;28;20033;-71
2021/06/29 05:55:16;;;;;;;109.07;47.58;;;17.60;90.90;;;;;;5026289;28;20857;-71
2021/06/29 05:57:42;;;;;;;103.93;47.53;;;17.60;90.90;;;;;;5019726;28;20034;-70
2021/06/29 06:00:11;;;;;;;107.03;45.95;;;17.60;90.80;;;;;;5013555;28;20046;-71
2021/06/29 06:02:38;;;;;;;99.32;43.50;;;17.60;90.90;;;;;;5021160;28;20029;-71
2021/06/29 06:05:08;;;;;;;108.00;46.25;;;17.60;90.90;;;;;;5016517;28;20124;-71
2021/06/29 06:07:35;;;;;;;91.35;44.78;;;17.60;90.90;;;;;;5009948;28;20455;-73
2021/06/29 06:10:01;;;;;;;110.38;46.45;;;17.70;90.70;;;;;;5013949;28;20045;-70
2021/06/29 06:12:27;;;;;;;95.93;43.10;;;17.70;90.60;;;;;;5009532;28;20033;-70
2021/06/29 06:14:55;;;;;;;107.18;44.60;;;17.70;90.60;;;;;;5021588;28;20124;-69
2021/06/29 06:17:21;;;;;;;111.03;46.35;;;17.60;90.70;;;;;;5010771;28;20084;-75
2021/06/29 06:19:46;;;;;;;105.68;45.97;;;17.70;90.70;;;;;;5012997;28;20038;-69
2021/06/29 06:22:12;;;;;;;112.35;48.28;;;17.60;90.70;;;;;;5008116;28;20033;-70
2021/06/29 06:24:38;;;;;;;109.97;47.15;;;17.60;90.70;;;;;;5015536;28;20704;-70
2021/06/29 06:27:04;;;;;;;113.60;49.03;;;17.70;90.80;;;;;;5014868;28;20385;-70
2021/06/29 06:29:30;;;;;;;100.35;45.50;;;17.70;90.60;;;;;;5018468;28;20057;-69
2021/06/29 06:31:55;;;;;;;105.78;46.60;;;17.60;90.50;;;;;;5014581;28;20061;-73
2021/06/29 06:34:21;;;;;;;91.93;43.58;;;17.70;90.70;;;;;;5013503;28;20408;-71
2021/06/29 06:36:47;;;;;;;102.50;44.25;;;17.70;90.60;;;;;;5008131;28;20038;-73
2021/06/29 06:39:14;;;;;;;93.82;44.17;;;17.70;90.80;;;;;;5016693;28;20091;-70
2021/06/29 06:41:39;;;;;;;86.30;42.75;;;17.70;90.50;;;;;;5021927;28;20036;-70
2021/06/29 06:44:05;;;;;;;78.05;39.65;;;17.80;90.50;;;;;;5017477;28;20037;-70
2021/06/29 06:46:31;;;;;;;90.90;41.35;;;17.80;90.40;;;;;;5012966;28;20057;-71
2021/06/29 06:48:56;;;;;;;85.60;41.17;;;17.90;90.30;;;;;;5011315;28;20473;-69
2021/06/29 06:51:22;;;;;;;84.25;40.40;;;17.90;89.80;;;;;;4998963;28;20034;-70
2021/06/29 06:53:50;;;;;;;83.70;39.92;;;18.00;90.00;;;;;;4994563;28;20038;-69
2021/06/29 06:56:15;;;;;;;80.57;39.17;;;18.00;89.90;;;;;;5006156;28;20038;-69
2021/06/29 06:58:45;;;;;;;80.60;38.88;;;18.10;89.90;;;;;;4994548;28;20027;-69
2021/06/29 07:01:11;;;;;;;78.50;39.00;;;18.10;89.40;;;;;;4994431;28;20054;-69
2021/06/29 07:03:38;;;;;;;75.38;36.80;;;18.10;89.30;;;;;;4998272;28;20401;-69
2021/06/29 07:06:07;;;;;;;78.57;36.63;;;18.20;89.40;;;;;;4994633;28;20211;-76
2021/06/29 07:08:34;;;;;;;73.10;36.33;;;18.20;89.00;;;;;;4993431;28;20045;-70
2021/06/29 07:11:01;;;;;;;79.47;37.92;;;18.20;88.90;;;;;;4989033;28;20085;-71
2021/06/29 07:13:28;;;;;;;71.07;36.30;;;18.30;88.90;;;;;;4994391;28;20094;-71
2021/06/29 07:15:54;;;;;;;74.95;35.42;;;18.40;89.00;;;;;;5014345;28;20122;-69
2021/06/29 07:18:20;;;;;;;73.95;35.53;;;18.50;89.00;;;;;;5020552;28;20060;-71
2021/06/29 07:20:47;;;;;;;70.80;35.70;;;18.50;88.70;;;;;;5009028;28;20096;-70
2021/06/29 07:23:13;;;;;;;70.85;36.15;;;18.60;88.40;;;;;;5018393;28;20129;-69
2021/06/29 07:25:39;;;;;;;79.30;39.17;;;18.60;88.50;;;;;;5018327;28;20357;-69
2021/06/29 07:28:06;;;;;;;78.00;37.70;;;18.60;87.60;;;;;;5013802;28;20036;-69
2021/06/29 07:30:31;;;;;;;70.82;35.97;;;18.70;88.30;;;;;;5023295;28;20056;-69
2021/06/29 07:32:58;;;;;;;65.90;33.75;;;18.90;87.50;;;;;;5022136;28;20069;-69
2021/06/29 07:35:25;;;;;;;71.32;37.13;;;19.00;87.00;;;;;;5022714;28;20383;-70
2021/06/29 07:37:51;;;;;;;60.50;33.05;;;19.20;86.80;;;;;;5023447;28;20489;-70
2021/06/29 07:40:17;;;;;;;65.50;34.20;;;19.50;86.80;;;;;;5022607;28;20041;-71
2021/06/29 07:42:43;;;;;;;62.08;35.35;;;19.70;85.30;;;;;;5022434;28;20049;-71
2021/06/29 07:45:09;;;;;;;64.28;34.00;;;19.80;83.90;;;;;;5020612;28;20083;-71
2021/06/29 07:47:35;;;;;;;58.75;31.65;;;19.90;83.70;;;;;;5013400;28;20037;-71
2021/06/29 07:50:03;;;;;;;58.22;33.35;;;19.90;83.70;;;;;;5018721;28;20101;-71
2021/06/29 07:52:28;;;;;;;57.67;31.23;;;20.00;83.40;;;;;;5016120;28;20067;-70
2021/06/29 07:54:54;;;;;;;54.15;32.38;;;20.00;83.70;;;;;;5018920;28;20042;-73
2021/06/29 07:57:20;;;;;;;56.83;32.88;;;19.80;83.50;;;;;;5010508;28;20053;-70
2021/06/29 07:59:45;;;;;;;53.40;31.88;;;19.80;83.60;;;;;;5012654;28;20096;-70
2021/06/29 08:02:11;;;;;;;53.50;32.38;;;20.00;83.80;;;;;;5021539;28;20413;-73
2021/06/29 08:04:37;;;;;;;51.33;31.13;;;20.00;82.80;;;;;;5014499;28;20046;-70
2021/06/29 08:07:03;;;;;;;58.55;33.85;;;20.20;83.20;;;;;;5022658;28;20037;-71
2021/06/29 08:09:29;;;;;;;55.58;33.22;;;20.40;82.10;;;;;;5009740;28;21392;-71
2021/06/29 08:11:55;;;;;;;53.20;32.80;;;20.60;81.30;;;;;;5014041;28;20539;-70
2021/06/29 08:14:20;;;;;;;56.13;35.15;;;20.80;80.40;;;;;;5009879;28;20061;-70
2021/06/29 08:16:46;;;;;;;52.22;33.42;;;21.00;79.30;;;;;;5015426;28;20464;-70
2021/06/29 08:19:12;;;;;;;58.78;33.42;;;21.20;78.70;;;;;;5012197;28;20495;-71
2021/06/29 08:21:37;;;;;;;55.33;32.95;;;21.30;77.40;;;;;;5010603;28;20038;-73
2021/06/29 08:24:04;;;;;;;59.58;35.00;;;21.40;77.40;;;;;;5010459;28;20552;-72
2021/06/29 08:26:30;;;;;;;54.42;33.95;;;21.60;76.90;;;;;;5011115;28;20485;-71
2021/06/29 08:28:56;;;;;;;58.78;35.38;;;21.60;77.00;;;;;;5010614;28;20030;-70
2021/06/29 08:31:22;;;;;;;53.97;33.53;;;21.70;76.00;;;;;;4999814;28;20029;-70
2021/06/29 08:33:48;;;;;;;54.50;34.22;;;21.70;76.90;;;;;;5013668;28;20065;-70
2021/06/29 08:36:17;;;;;;;55.85;34.55;;;21.80;76.80;;;;;;5013800;28;20040;-69
2021/06/29 08:38:42;;;;;;;50.80;33.35;;;22.10;75.10;;;;;;5015599;28;20033;-69
2021/06/29 08:41:10;;;;;;;47.95;33.15;;;22.20;75.50;;;;;;5004283;28;20034;-72
2021/06/29 08:43:36;;;;;;;48.10;32.55;;;22.30;73.80;;;;;;5006525;28;20057;-73
2021/06/29 08:46:01;;;;;;;45.13;30.67;;;22.60;73.70;;;;;;5012602;28;20042;-71
2021/06/29 08:48:27;;;;;;;46.90;31.13;;;22.60;73.00;;;;;;5013839;28;20167;-71
2021/06/29 08:50:53;;;;;;;45.70;30.95;;;22.60;73.30;;;;;;5013253;28;20534;-71
2021/06/29 08:53:19;;;;;;;48.20;31.92;;;22.70;72.70;;;;;;5018660;28;20042;-70
2021/06/29 08:55:48;;;;;;;48.15;32.67;;;22.80;72.10;;;;;;5014546;28;20040;-70
2021/06/29 08:58:21;;;;;;;42.25;31.25;;;22.70;71.60;;;;;;5004799;28;20136;-70
2021/06/29 09:00:48;;;;;;;45.63;32.13;;;22.60;71.50;;;;;;5019976;28;20025;-70
2021/06/29 09:03:14;;;;;;;43.28;31.33;;;22.80;72.60;;;;;;5007075;28;20105;-72
2021/06/29 09:05:51;;;;;;;46.63;31.92;;;22.90;70.50;;;;;;5017141;28;20037;-71
2021/06/29 09:08:19;;;;;;;48.88;33.42;;;23.10;71.40;;;;;;5015371;28;20036;-70
2021/06/29 09:11:10;;;;;;;43.08;30.67;;;22.70;71.20;;;;;;5006110;28;20065;-69
2021/06/29 09:13:37;;;;;;;45.05;32.88;;;22.70;71.70;;;;;;5000416;28;20501;-69
2021/06/29 09:16:06;;;;;;;46.08;33.08;;;22.60;71.50;;;;;;4992284;28;20434;-69
2021/06/29 09:18:35;;;;;;;42.17;30.92;;;22.30;72.80;;;;;;4997603;28;20042;-72
2021/06/29 09:21:09;;;;;;;45.08;32.80;;;22.40;73.20;;;;;;4988657;28;20520;-70
2021/06/29 09:23:40;;;;;;;45.63;32.83;;;22.10;72.40;;;;;;4991947;28;20053;-74
2021/06/29 09:26:14;;;;;;;46.45;32.55;;;22.20;72.40;;;;;;4989220;28;20985;-70
2021/06/29 09:28:47;;;;;;;51.42;36.03;;;22.40;72.40;;;;;;4993350;28;20234;-70
2021/06/29 09:31:15;;;;;;;49.70;33.35;;;22.50;72.50;;;;;;4992092;28;20048;-69
2021/06/29 09:33:46;;;;;;;49.35;33.22;;;22.10;73.20;;;;;;4993388;28;20034;-69
2021/06/29 09:36:15;;;;;;;51.58;33.80;;;21.90;74.00;;;;;;4992611;28;20044;-73
2021/06/29 09:38:42;;;;;;;47.75;32.28;;;22.10;74.30;;;;;;4988562;28;20037;-70
2021/06/29 09:41:14;;;;;;;48.33;32.22;;;22.60;73.30;;;;;;4997531;28;20038;-69
2021/06/29 09:43:45;;;;;;;47.15;32.08;;;23.10;71.10;;;;;;4999189;28;20049;-70
2021/06/29 09:46:13;;;;;;;47.38;32.55;;;23.40;70.30;;;;;;4992037;28;20115;-72
2021/06/29 09:48:48;;;;;;;51.10;34.75;;;23.60;69.60;;;;;;4988924;28;20039;-72
2021/06/29 09:51:23;;;;;;;49.28;33.95;;;23.50;69.80;;;;;;4995586;28;20338;-71
2021/06/29 09:53:51;;;;;;;46.75;33.28;;;23.80;68.40;;;;;;4989900;28;20042;-72
2021/06/29 09:56:22;;;;;;;47.30;32.08;;;23.80;67.70;;;;;;4991746;28;20046;-71
2021/06/29 09:58:50;;;;;;;47.30;32.35;;;23.70;68.80;;;;;;4990801;28;20038;-71
2021/06/29 10:01:18;;;;;;;43.42;32.25;;;23.90;66.90;;;;;;4994831;28;21108;-71
2021/06/29 10:03:45;;;;;;;50.35;34.45;;;24.20;67.80;;;;;;4990947;28;20088;-71
2021/06/29 10:06:28;;;;;;;48.25;35.20;;;24.10;67.00;;;;;;4983540;28;20553;-72
2021/06/29 10:09:01;;;;;;;49.55;35.47;;;23.70;68.00;;;;;;4992609;28;20129;-74
2021/06/29 10:11:28;;;;;;;49.70;36.73;;;23.60;67.30;;;;;;4989544;28;20081;-71
2021/06/29 10:14:00;;;;;;;55.33;38.78;;;23.40;69.10;;;;;;4991300;28;20309;-73
2021/06/29 10:16:50;;;;;;;54.20;36.85;;;23.10;69.60;;;;;;4992756;28;20045;-73
2021/06/29 10:21:58;;;;;;;55.10;37.58;;;22.80;72.00;;;;;;4991705;28;20489;-73
2021/06/29 10:24:27;;;;;;;59.85;39.65;;;22.80;72.70;;;;;;4988741;28;20081;-72
2021/06/29 10:26:58;;;;;;;56.70;39.03;;;22.40;72.50;;;;;;4987223;28;20394;-73
2021/06/29 10:29:26;;;;;;;57.53;37.63;;;22.20;73.70;;;;;;4988966;28;20447;-75
2021/06/29 10:31:55;;;;;;;58.92;38.38;;;21.90;75.20;;;;;;4991830;28;20045;-72
2021/06/29 10:34:23;;;;;;;58.15;37.55;;;21.90;74.60;;;;;;4990278;28;20428;-73
2021/06/29 10:36:51;;;;;;;66.70;40.78;;;21.70;75.40;;;;;;4993526;28;20068;-72
2021/06/29 10:39:19;;;;;;;73.30;42.97;;;21.40;76.70;;;;;;4976008;28;20026;-72
2021/06/29 10:41:53;;;;;;;73.43;45.05;;;21.30;76.30;;;;;;4986507;28;20027;-76
2021/06/29 10:44:21;;;;;;;80.45;46.25;;;21.00;77.30;;;;;;4983474;28;20093;-71
2021/06/29 10:46:52;;;;;;;81.28;47.92;;;20.80;78.50;;;;;;4985055;28;20038;-75
2021/06/29 10:49:37;;;;;;;78.97;48.35;;;20.90;78.70;;;;;;4987370;28;20056;-73
2021/06/29 10:52:08;;;;;;;73.72;45.92;;;21.10;78.00;;;;;;4988557;28;20038;-72
2021/06/29 10:54:46;;;;;;;73.90;44.03;;;21.30;77.30;;;;;;4989493;28;20033;-73
2021/06/29 10:57:16;;;;;;;80.18;46.35;;;21.20;77.70;;;;;;4990063;28;20035;-75
2021/06/29 10:59:46;;;;;;;76.88;45.10;;;21.00;77.60;;;;;;4987275;28;20038;-72
2021/06/29 11:02:27;;;;;;;79.32;45.20;;;21.10;78.30;;;;;;4988489;28;20136;-73
2021/06/29 11:04:58;;;;;;;72.32;43.00;;;21.00;78.20;;;;;;4990732;28;20042;-71
2021/06/29 11:07:29;;;;;;;86.65;44.50;;;21.00;78.00;;;;;;5003440;28;20137;-73
2021/06/29 11:09:57;;;;;;;72.95;40.65;;;20.90;78.20;;;;;;4989853;28;20158;-70
2021/06/29 11:12:29;;;;;;;71.63;41.03;;;20.90;78.10;;;;;;4990671;28;20079;-71
2021/06/29 11:14:59;;;;;;;71.05;40.17;;;21.10;78.10;;;;;;4993777;28;20096;-71
2021/06/29 11:17:47;;;;;;;68.97;41.22;;;21.40;77.20;;;;;;4990220;28;20096;-70
2021/06/29 11:20:21;;;;;;;64.55;37.70;;;21.50;76.90;;;;;;4991136;28;20445;-71
2021/06/29 11:22:51;;;;;;;70.57;39.30;;;21.30;76.70;;;;;;4991256;28;20033;-73
2021/06/29 11:25:37;;;;;;;69.22;38.83;;;21.30;76.70;;;;;;4991647;28;20050;-73
2021/06/29 11:28:05;;;;;;;67.70;39.60;;;21.40;76.20;;;;;;4996143;28;20030;-73
2021/06/29 11:30:50;;;;;;;62.05;38.22;;;21.40;76.60;;;;;;4992850;28;20096;-74
2021/06/29 11:33:34;;;;;;;60.22;35.40;;;21.30;76.50;;;;;;4994336;28;20046;-70
2021/06/29 11:36:01;;;;;;;55.50;34.58;;;21.10;76.90;;;;;;4988981;28;20048;-71
2021/06/29 11:38:34;;;;;;;56.97;33.63;;;21.20;77.30;;;;;;4990693;28;20042;-72
2021/06/29 11:41:24;;;;;;;52.25;32.45;;;21.30;76.90;;;;;;4988853;28;20117;-71
2021/06/29 11:43:59;;;;;;;48.78;30.35;;;21.30;77.10;;;;;;4989794;28;20488;-75
2021/06/29 11:47:05;;;;;;;50.42;31.40;;;21.60;76.50;;;;;;4986943;28;20038;-72
2021/06/29 11:49:37;;;;;;;42.75;27.75;;;21.60;76.00;;;;;;4990763;28;20041;-71
2021/06/29 11:52:03;;;;;;;41.95;28.98;;;21.90;76.20;;;;;;4988684;28;20034;-73
2021/06/29 11:54:37;;;;;;;41.65;29.15;;;21.80;74.70;;;;;;5004537;28;20397;-72
2021/06/29 11:57:39;;;;;;;43.63;28.80;;;21.90;75.50;;;;;;4990609;28;20049;-71
2021/06/29 12:00:05;;;;;;;40.63;28.48;;;22.00;74.60;;;;;;4986337;28;20030;-71
2021/06/29 12:02:32;;;;;;;40.88;27.98;;;21.70;74.20;;;;;;4991383;28;20567;-73
2021/06/29 12:05:02;;;;;;;40.28;26.70;;;21.60;76.00;;;;;;4987939;28;20369;-74
2021/06/29 12:07:43;;;;;;;40.47;28.17;;;21.70;75.40;;;;;;4988699;28;20049;-70
2021/06/29 12:10:28;;;;;;;37.33;28.45;;;21.60;75.30;;;;;;4990453;28;20124;-71
2021/06/29 12:12:58;;;;;;;;;;;21.50;75.60;;;;;;4989753;28;20132;-70
2021/06/29 12:15:27;;;;;;;38.78;28.30;;;21.60;76.40;;;;;;4990454;28;19914;-69
2021/06/29 12:18:07;;;;;;;39.00;27.92;;;21.60;76.10;;;;;;4992341;28;20077;-71
2021/06/29 12:20:37;;;;;;;36.60;27.17;;;21.30;77.00;;;;;;4993021;28;20030;-70
2021/06/29 12:23:06;;;;;;;37.00;27.83;;;21.10;78.10;;;;;;4992495;28;20041;-74
2021/06/29 12:25:35;;;;;;;35.63;27.88;;;21.00;78.20;;;;;;4999082;28;20033;-71
2021/06/29 12:28:14;;;;;;;38.13;29.88;;;21.10;78.70;;;;;;5010361;28;20038;-70
2021/06/29 12:30:41;;;;;;;37.72;30.58;;;21.30;77.90;;;;;;5012738;28;20840;-69
2021/06/29 12:33:13;;;;;;;47.17;34.88;;;21.50;78.30;;;;;;5011528;28;20069;-72